Terminal Aerodrome Forecast
Issued by NWS

Home | Current Version | Previous Version | Text Only | Print | Product List | Glossary On
Versions: 1 2 3 4 5 6 7 8 9 10 11 12 13 14 15 16 17 18 19 20
000
FTUS41 KRNK 251731
TAFLWB
TAF
KLWB 251731Z 2518/2618 26007KT P6SM BKN035
     FM252300 26004KT P6SM SCT045
     FM260400 00000KT 4SM BR SCT025
     FM260900 00000KT 1/4SM FG VV001
     FM261300 30003KT P6SM SCT015=

USA.gov is the U.S. government's official web portal to all federal, state and local government web resources and services.